Buckeye, Indiana
Current Conditions -  °F | °C
As of 5:35 AM on Friday 24 Oct 2014 (Local Time) from KHHG Reporting Station
Clear Clear  
Wind Chill: 39°   Ceiling: Unl
Heat Index: 39°   Visibility: 7mi
Dew Point: 39°   Wind: 3mph
Humidity: 99%   Direction: 200°SSW
Pressure: 30.09"   Gusts: NA
Location:  40.6897°N, 85.3916°W
Report Text: KHHG 240935Z AUTO 20003KT 7SM CLR 04/04 A3009 RMK AO2 T00400038
Loading
Personal Weather Stations






























Interactive Weather Map
Tropical Storm Tracking
New forecast layout! Learn more

10-Day Weather Forecast

Advertisements
Track Severe Weather on mobile